Time;durP1;ratioP1;P1;durP2;ratioP2;P2;SDS_P1;SDS_P2;PMS_P1;PMS_P2;Temp;Humidity;BMP_temperature;BMP_pressure;BME280_temperature;BME280_humidity;BME280_pressure;Samples;Min_cycle;Max_cycle;Signal;HPM_P1;HPM_P2
2022/04/22 00:01:09;;;;;;;;;11.75;11.00;;;;;16.93;39.11;99899.28;5164836;27;45280;-66
2022/04/22 00:03:35;;;;;;;;;10.00;8.25;;;;;16.90;40.00;99897.50;5163749;27;45414;-66
2022/04/22 00:06:01;;;;;;;;;9.25;9.00;;;;;16.85;39.91;99888.59;5145022;27;46152;-64
2022/04/22 00:08:26;;;;;;;;;11.00;9.25;;;;;16.85;39.74;99885.00;5160082;27;45477;-65
2022/04/22 00:13:36;;;;;;;;;10.25;10.25;;;;;16.80;39.86;99884.16;5159866;27;45490;-66
2022/04/22 00:16:02;;;;;;;;;9.00;9.00;;;;;16.28;40.13;99794.88;5163305;27;46005;-67
2022/04/22 00:18:27;;;;;;;;;8.50;6.25;;;;;16.71;39.95;99886.06;5163151;27;45375;-66
2022/04/22 00:20:53;;;;;;;;;13.50;10.25;;;;;16.76;39.75;99894.97;5159310;27;45351;-66
2022/04/22 00:23:19;;;;;;;;;9.75;9.25;;;;;16.73;40.37;99884.22;5159805;27;45347;-66
2022/04/22 00:25:45;;;;;;;;;7.75;7.75;;;;;16.64;40.18;99867.25;5158851;27;45372;-64
2022/04/22 00:28:10;;;;;;;;;9.00;6.50;;;;;16.73;39.80;99892.31;5140226;27;45419;-67
2022/04/22 00:30:35;;;;;;;;;14.50;11.25;;;;;16.68;40.21;99883.38;5159567;27;46103;-67
2022/04/22 00:33:01;;;;;;;;;12.75;12.75;;;;;16.66;40.34;99885.19;5159673;27;45410;-66
2022/04/22 00:35:26;;;;;;;;;8.25;7.75;;;;;16.65;40.47;99886.13;5159175;27;46920;-66
2022/04/22 00:37:51;;;;;;;;;8.50;8.50;;;;;16.70;40.54;99883.38;5159199;27;45284;-66
2022/04/22 00:40:17;;;;;;;;;9.50;9.25;;;;;16.67;40.67;99873.50;5159197;27;45405;-64
2022/04/22 00:42:42;;;;;;;;;9.75;8.50;;;;;16.66;40.18;99882.50;5159290;27;45442;-64
2022/04/22 00:45:09;;;;;;;;;8.50;4.75;;;;;16.64;40.67;99883.44;5159304;27;45388;-64
2022/04/22 00:47:35;;;;;;;;;10.50;10.50;;;;;16.58;40.72;99874.50;5159218;27;45396;-64
2022/04/22 00:50:00;;;;;;;;;11.00;9.25;;;;;16.55;40.71;99873.66;5159098;27;45489;-64
2022/04/22 00:52:27;;;;;;;;;8.50;8.25;;;;;16.57;40.89;99877.22;5159533;27;45527;-66
2022/04/22 00:54:52;;;;;;;;;9.75;8.25;;;;;16.56;40.38;99883.53;5161334;27;46264;-66
2022/04/22 00:57:18;;;;;;;;;13.75;10.75;;;;;16.01;40.56;99785.34;5165983;27;45523;-65
2022/04/22 00:59:45;;;;;;;;;9.00;8.00;;;;;16.50;40.97;99876.41;5158923;27;45379;-66
2022/04/22 01:02:10;;;;;;;;;12.50;9.75;;;;;16.52;41.15;99877.28;5159274;27;45319;-64
2022/04/22 01:10:05;;;;;;;;;8.50;8.50;;;;;16.46;41.54;99871.06;5177540;27;45019;-65
2022/04/22 01:12:31;;;;;;;;;3.00;1.50;;;;;16.42;41.20;99869.34;5177813;27;45116;-64
2022/04/22 01:14:58;;;;;;;;;9.00;7.75;;;;;16.30;41.89;99854.16;5176411;27;45369;-65
2022/04/22 01:17:24;;;;;;;;;12.00;7.50;;;;;16.28;41.74;99842.53;5177786;27;45024;-68
2022/04/22 01:19:50;;;;;;;;;8.25;7.00;;;;;16.31;42.06;99864.94;5177909;27;45161;-65
2022/04/22 01:22:15;;;;;;;;;8.00;8.00;;;;;16.25;41.76;99861.41;5177670;27;45208;-67
2022/04/22 01:24:40;;;;;;;;;8.00;8.00;;;;;16.09;42.19;99841.84;5176930;27;45759;-66
2022/04/22 01:27:07;;;;;;;;;5.00;5.00;;;;;16.19;42.46;99863.28;5176679;27;44979;-65
2022/04/22 01:29:32;;;;;;;;;8.00;7.75;;;;;16.16;42.27;99862.41;5175701;27;45187;-68
2022/04/22 01:32:00;;;;;;;;;7.00;7.00;;;;;16.14;42.17;99857.03;5155673;27;45124;-64
2022/04/22 01:34:25;;;;;;;;;10.75;8.50;;;;;16.15;42.42;99850.75;5175742;27;45614;-64
2022/04/22 01:36:51;;;;;;;;;8.25;8.25;;;;;16.13;42.65;99848.97;5173884;27;45364;-66
2022/04/22 01:39:16;;;;;;;;;8.50;7.50;;;;;16.09;42.62;99849.94;5156232;27;45169;-64
2022/04/22 01:41:42;;;;;;;;;8.75;7.00;;;;;16.07;42.56;99840.94;5177239;27;45239;-68
2022/04/22 01:44:07;;;;;;;;;10.00;7.25;;;;;15.97;42.46;99827.59;5176746;27;48150;-67
2022/04/22 01:46:33;;;;;;;;;10.00;9.00;;;;;16.10;42.40;99840.91;5175888;27;44929;-64
2022/04/22 01:48:58;;;;;;;;;12.25;10.25;;;;;15.95;42.55;99826.69;5177129;27;44913;-66
2022/04/22 01:51:24;;;;;;;;;14.25;11.25;;;;;15.97;43.07;99834.75;5176918;27;44930;-63
2022/04/22 01:53:49;;;;;;;;;12.25;9.25;;;;;15.96;42.62;99838.38;5173578;27;45316;-67
2022/04/22 01:56:15;;;;;;;;;9.50;9.50;;;;;15.91;42.99;99840.25;5173871;27;45359;-65
2022/04/22 01:58:40;;;;;;;;;10.75;9.50;;;;;15.93;43.01;99839.28;5173500;27;45496;-65
2022/04/22 02:01:05;;;;;;;;;8.00;6.50;;;;;15.85;43.53;99833.09;5174367;27;45125;-66
2022/04/22 02:03:30;;;;;;;;;8.50;8.50;;;;;15.82;43.29;99839.41;5173874;27;45574;-66
2022/04/22 02:05:56;;;;;;;;;12.25;9.00;;;;;15.66;43.40;99818.91;5174436;27;45192;-66
2022/04/22 02:08:21;;;;;;;;;8.00;7.75;;;;;15.78;43.64;99834.06;5174017;27;45211;-66
2022/04/22 02:10:47;;;;;;;;;11.50;11.50;;;;;15.71;43.75;99826.94;5175000;27;45331;-65
2022/04/22 02:13:12;;;;;;;;;13.25;10.25;;;;;15.69;43.67;99831.41;5174399;27;45791;-68
2022/04/22 02:15:38;;;;;;;;;11.50;9.50;;;;;15.70;44.05;99835.91;5173923;27;44936;-67
2022/04/22 02:18:03;;;;;;;;;11.00;11.00;;;;;15.64;43.76;99828.75;5173905;27;44933;-66
2022/04/22 02:20:28;;;;;;;;;5.75;5.50;;;;;15.61;44.03;99831.50;5172748;27;45231;-66
2022/04/22 02:22:54;;;;;;;;;7.50;7.50;;;;;15.59;44.27;99831.53;5173254;27;46151;-67
2022/04/22 02:25:19;;;;;;;;;10.50;8.00;;;;;15.59;44.05;99830.59;5174274;27;45030;-66
2022/04/22 02:30:28;;;;;;;;;9.75;8.75;;;;;15.56;44.21;99828.84;5174171;27;45114;-66
2022/04/22 02:32:54;;;;;;;;;8.75;8.25;;;;;15.54;43.91;99830.69;5175554;27;45022;-67
2022/04/22 02:35:21;;;;;;;;;11.75;10.25;;;;;15.49;44.34;99813.63;5175300;27;45012;-67
2022/04/22 02:37:47;;;;;;;;;9.25;9.25;;;;;15.37;44.05;99797.63;5175298;27;44847;-67
2022/04/22 02:45:26;;;;;;;;;11.75;9.75;;;;;15.37;44.09;99803.88;5175726;27;45134;-67
2022/04/22 02:45:43;;;;;;;;;11.50;10.50;;;;;15.44;44.28;99820.88;5174623;27;45379;-65
2022/04/22 02:48:08;;;;;;;;;10.00;9.25;;;;;15.40;44.37;99811.94;5174875;27;44914;-66
2022/04/22 02:50:33;;;;;;;;;10.50;10.50;;;;;15.42;44.26;99812.81;5173877;27;45441;-66
2022/04/22 02:52:59;;;;;;;;;10.00;8.75;;;;;15.09;44.13;99763.75;5174353;27;45841;-66
2022/04/22 02:55:24;;;;;;;;;11.75;8.50;;;;;15.38;44.71;99820.94;5174535;27;49699;-67
2022/04/22 02:57:49;;;;;;;;;9.50;9.50;;;;;15.29;44.44;99806.66;5173313;27;45417;-67
2022/04/22 03:00:15;;;;;;;;;15.75;10.75;;;;;15.31;44.42;99817.41;5173314;27;45390;-67
2022/04/22 03:02:44;;;;;;;;;11.50;9.50;;;;;15.32;44.50;99811.09;5172811;27;46108;-67
2022/04/22 03:05:10;;;;;;;;;9.00;9.00;;;;;15.22;44.47;99794.13;5173038;27;45216;-65
2022/04/22 03:07:36;;;;;;;;;14.50;12.50;;;;;15.13;44.86;99786.16;5172922;27;45185;-67
2022/04/22 03:10:01;;;;;;;;;10.00;9.00;;;;;15.23;45.04;99800.44;5177046;27;44926;-66
2022/04/22 03:12:27;;;;;;;;;11.00;9.00;;;;;15.08;44.92;99788.88;5174776;27;45552;-67
2022/04/22 03:14:52;;;;;;;;;11.25;9.75;;;;;15.22;44.74;99809.41;5174587;27;53759;-66
2022/04/22 03:17:17;;;;;;;;;10.25;10.25;;;;;15.20;45.17;99804.03;5173920;27;45227;-66
2022/04/22 03:19:43;;;;;;;;;9.75;7.25;;;;;15.17;44.85;99804.03;5173772;27;45267;-66
2022/04/22 03:22:08;;;;;;;;;7.75;7.75;;;;;15.17;44.67;99808.53;5173044;27;45241;-66
2022/04/22 03:24:33;;;;;;;;;11.00;8.75;;;;;15.16;44.94;99809.44;5173033;27;45766;-65
2022/04/22 03:26:59;;;;;;;;;11.25;10.75;;;;;15.15;44.91;99810.34;5172872;27;45363;-66
2022/04/22 03:29:26;;;;;;;;;13.50;11.00;;;;;15.09;44.97;99801.41;5173583;27;44946;-65
2022/04/22 03:31:51;;;;;;;;;10.75;9.25;;;;;15.06;44.78;99797.84;5175260;27;45309;-65
2022/04/22 03:34:16;;;;;;;;;12.25;11.50;;;;;15.03;44.60;99800.56;5178474;27;45018;-66
2022/04/22 03:36:42;;;;;;;;;9.00;9.00;;;;;14.98;44.95;99795.22;5178044;27;45072;-65
2022/04/22 03:39:08;;;;;;;;;10.00;10.00;;;;;15.04;45.07;99796.97;5176701;27;45034;-67
2022/04/22 03:41:33;;;;;;;;;12.00;11.00;;;;;15.01;45.01;99791.59;5177484;27;45662;-65
2022/04/22 03:43:59;;;;;;;;;7.75;7.75;;;;;14.97;45.07;99792.56;5176948;27;45094;-66
2022/04/22 03:46:24;;;;;;;;;10.00;10.00;;;;;14.93;45.18;99799.72;5175407;27;44975;-65
2022/04/22 03:48:50;;;;;;;;;9.00;9.00;;;;;14.93;45.18;99788.97;5176413;27;45012;-67
2022/04/22 03:51:15;;;;;;;;;9.50;8.50;;;;;14.47;45.33;99713.94;5175960;27;45636;-65
2022/04/22 03:53:41;;;;;;;;;10.75;8.50;;;;;14.88;45.35;99798.84;5175609;27;45356;-65
2022/04/22 03:58:50;;;;;;;;;11.50;10.75;;;;;14.83;44.83;99796.22;5174667;27;45105;-65
2022/04/22 04:01:16;;;;;;;;;10.00;10.00;;;;;14.82;45.63;99797.13;5175650;27;45404;-66
2022/04/22 04:03:41;;;;;;;;;9.75;9.75;;;;;14.78;45.79;99787.28;5175911;27;45243;-66
2022/04/22 04:06:07;;;;;;;;;10.75;9.75;;;;;14.77;45.43;99785.50;5175336;27;44959;-66
2022/04/22 04:08:33;;;;;;;;;10.00;10.00;;;;;14.75;45.84;99798.06;5175746;27;44842;-65
2022/04/22 04:16:14;;;;;;;;;15.25;13.25;;;;;14.74;45.31;99782.81;5174637;27;44975;-66
2022/04/22 04:18:41;;;;;;;;;11.00;11.00;;;;;14.76;45.64;99782.81;5175544;27;44985;-66
2022/04/22 04:23:55;;;;;;;;;18.25;16.50;;;;;14.74;45.50;99777.44;5174875;27;44928;-67
2022/04/22 04:26:24;;;;;;;;;12.00;11.25;;;;;14.73;45.68;99789.09;5175277;27;45037;-66
2022/04/22 04:28:50;;;;;;;;;13.75;12.50;;;;;14.67;45.82;99770.34;5175159;27;45066;-68
2022/04/22 04:31:16;;;;;;;;;12.25;12.25;;;;;14.71;46.07;99777.47;5174982;27;45629;-67
2022/04/22 04:33:45;;;;;;;;;15.25;14.50;;;;;14.59;45.60;99756.94;5175490;27;45272;-68
2022/04/22 04:36:11;;;;;;;;;50.75;38.50;;;;;14.62;46.17;99758.69;5174879;27;45067;-66
2022/04/22 04:38:38;;;;;;;;;14.50;13.00;;;;;14.70;45.73;99773.91;5176011;27;45388;-67
2022/04/22 04:41:06;;;;;;;;;11.00;11.00;;;;;14.67;45.85;99759.59;5174642;27;45403;-66
2022/04/22 04:43:32;;;;;;;;;19.75;15.00;;;;;14.67;46.11;99770.34;5175003;27;44960;-65
2022/04/22 04:45:58;;;;;;;;;13.00;12.00;;;;;14.61;45.79;99787.38;5175259;27;45684;-68
2022/04/22 04:48:23;;;;;;;;;14.75;13.50;;;;;14.60;45.71;99763.19;5175243;27;45262;-66
2022/04/22 04:50:51;;;;;;;;;15.25;12.25;;;;;14.57;46.04;99783.78;5173886;27;45307;-66
2022/04/22 04:53:19;;;;;;;;;13.00;12.25;;;;;14.55;46.35;99782.00;5174743;27;45162;-67
2022/04/22 04:55:45;;;;;;;;;12.25;12.25;;;;;14.54;46.47;99781.09;5174159;27;45071;-66
2022/04/22 04:58:11;;;;;;;;;14.75;12.25;;;;;14.50;46.29;99776.66;5175493;27;44983;-65
2022/04/22 05:00:36;;;;;;;;;13.00;12.75;;;;;14.46;46.44;99769.50;5175010;27;45418;-66
2022/04/22 05:03:02;;;;;;;;;16.00;14.50;;;;;14.47;47.03;99774.00;5175581;27;44915;-64
2022/04/22 05:05:27;;;;;;;;;16.75;14.00;;;;;14.49;46.29;99772.19;5175423;27;44846;-67
2022/04/22 05:07:56;;;;;;;;;15.50;14.25;;;;;14.46;46.72;99766.81;5168160;27;45257;-65
2022/04/22 05:10:22;;;;;;;;;10.75;9.75;;;;;14.46;46.80;99757.88;5176810;27;45296;-66
2022/04/22 05:12:49;;;;;;;;;12.00;11.25;;;;;14.40;46.59;99761.47;5177158;27;45189;-65
2022/04/22 05:15:17;;;;;;;;;12.50;11.75;;;;;14.37;47.18;99762.41;5177338;27;45029;-66
2022/04/22 05:17:42;;;;;;;;;12.00;12.00;;;;;14.36;47.19;99759.72;5176936;27;45050;-65
2022/04/22 05:20:10;;;;;;;;;13.00;11.00;;;;;14.32;46.84;99752.56;5176323;27;45358;-66
2022/04/22 05:22:35;;;;;;;;;16.00;14.50;;;;;14.28;47.42;99745.41;5175390;27;45034;-65
2022/04/22 05:25:01;;;;;;;;;15.00;13.25;;;;;14.27;47.67;99759.75;5177120;27;45116;-66
2022/04/22 05:27:26;;;;;;;;;15.25;13.75;;;;;14.33;47.54;99762.41;5177287;27;45011;-66
2022/04/22 05:32:47;;;;;;;;;12.25;12.25;;;;;14.28;47.56;99759.75;5136114;27;45214;-66
2022/04/22 05:35:15;;;;;;;;;15.25;15.25;;;;;14.29;47.16;99758.84;5177339;27;45120;-67
2022/04/22 05:37:48;;;;;;;;;13.00;12.00;;;;;14.05;47.84;99727.59;5176679;27;44994;-69
2022/04/22 05:40:20;;;;;;;;;16.25;15.25;;;;;14.26;48.12;99753.50;5176045;27;46714;-68
2022/04/22 05:42:46;;;;;;;;;21.00;17.00;;;;;14.29;47.21;99758.84;5174934;27;45028;-67
2022/04/22 05:45:12;;;;;;;;;25.50;22.50;;;;;14.32;48.00;99764.22;5174430;27;45100;-67
2022/04/22 05:47:38;;;;;;;;;17.25;15.75;;;;;14.29;47.74;99761.53;5156718;27;45131;-66
2022/04/22 05:50:05;;;;;;;;;15.00;14.00;;;;;14.39;48.05;99773.13;5176231;27;45969;-66
2022/04/22 05:52:35;;;;;;;;;17.00;15.25;;;;;14.07;47.52;99708.81;5174431;27;44895;-65
2022/04/22 05:55:02;;;;;;;;;16.25;15.25;;;;;14.42;47.85;99759.69;5174132;27;46334;-65
2022/04/22 05:57:31;;;;;;;;;14.75;14.75;;;;;14.45;47.30;99766.81;5169653;27;45563;-65
2022/04/22 05:59:58;;;;;;;;;15.00;15.00;;;;;14.19;48.30;99731.13;5170315;27;45926;-67
2022/04/22 06:02:24;;;;;;;;;17.75;16.00;;;;;14.34;47.94;99769.59;5168436;27;44965;-69
2022/04/22 06:04:49;;;;;;;;;18.50;16.00;;;;;14.31;48.29;99777.66;5164909;27;45355;-67
2022/04/22 06:07:14;;;;;;;;;32.00;30.25;;;;;14.34;48.39;99773.16;5165254;27;45363;-66
2022/04/22 06:12:24;;;;;;;;;34.25;26.75;;;;;14.40;48.47;99787.47;5156783;27;45285;-67
2022/04/22 06:14:49;;;;;;;;;17.50;13.75;;;;;14.45;48.17;99786.56;5158109;27;45427;-68
2022/04/22 06:17:14;;;;;;;;;21.00;19.75;;;;;14.47;48.07;99781.13;5166742;27;45539;-69
2022/04/22 06:19:40;;;;;;;;;17.00;15.75;;;;;14.50;47.90;99783.81;5157643;27;45366;-67
2022/04/22 06:22:05;;;;;;;;;22.00;17.00;;;;;14.54;47.67;99775.72;5157430;27;45493;-67
2022/04/22 06:24:31;;;;;;;;;17.25;15.75;;;;;14.41;47.66;99733.72;5156771;27;45799;-65
2022/04/22 06:26:56;;;;;;;;;15.00;14.25;;;;;14.61;47.41;99778.44;5157617;27;45428;-67
2022/04/22 06:29:22;;;;;;;;;18.00;14.75;;;;;14.65;47.38;99774.81;5156399;27;46111;-66
2022/04/22 06:31:47;;;;;;;;;16.00;15.25;;;;;14.65;47.41;99764.97;5165011;27;45479;-65
2022/04/22 06:34:13;;;;;;;;;18.25;16.00;;;;;14.53;47.33;99740.78;5158167;27;45474;-66
2022/04/22 06:36:39;;;;;;;;;15.75;15.75;;;;;14.72;47.08;99755.06;5157308;27;45458;-65
2022/04/22 06:39:04;;;;;;;;;17.75;12.25;;;;;14.77;47.10;99763.09;5156811;27;46538;-67
2022/04/22 06:46:58;;;;;;;;;20.00;17.25;;;;;14.89;47.75;99773.78;5156862;27;45431;-67
2022/04/22 06:49:24;;;;;;;;;18.00;16.25;;;;;14.92;46.87;99763.00;5156242;27;45423;-69
2022/04/22 06:51:50;;;;;;;;;22.50;17.25;;;;;14.92;47.15;99761.19;5137404;27;45502;-66
2022/04/22 06:54:16;;;;;;;;;18.75;16.00;;;;;14.92;47.08;99769.25;5155278;27;45422;-65
2022/04/22 06:56:42;;;;;;;;;26.75;22.50;;;;;14.94;47.30;99755.78;5156654;27;45419;-67
2022/04/22 06:59:08;;;;;;;;;16.00;16.00;;;;;14.99;47.17;99767.41;5157334;27;46141;-65
2022/04/22 07:01:36;;;;;;;;;14.75;14.75;;;;;15.04;46.85;99775.44;5157962;27;45296;-64
2022/04/22 07:04:02;;;;;;;;;17.00;15.50;;;;;15.08;46.92;99761.09;5157685;27;45419;-67
2022/04/22 07:06:29;;;;;;;;;16.00;15.00;;;;;15.13;46.79;99766.41;5159409;27;45543;-68
2022/04/22 07:08:55;;;;;;;;;14.00;12.75;;;;;15.18;46.87;99762.78;5160334;27;45998;-65
2022/04/22 07:11:30;;;;;;;;;19.50;16.25;;;;;15.21;46.79;99756.47;5160363;27;45443;-67
2022/04/22 07:14:00;;;;;;;;;17.25;15.75;;;;;15.25;46.68;99766.31;5160754;27;45366;-65
2022/04/22 07:16:26;;;;;;;;;18.25;18.25;;;;;15.17;46.56;99744.84;5160772;27;45451;-67
2022/04/22 07:18:52;;;;;;;;;18.75;15.00;;;;;15.27;46.81;99762.69;5160540;27;46553;-67
2022/04/22 07:21:18;;;;;;;;;16.50;15.00;;;;;14.91;46.63;99688.56;5159765;27;45558;-65
2022/04/22 07:23:44;;;;;;;;;15.25;15.25;;;;;15.31;46.79;99750.13;5160182;27;45371;-68
2022/04/22 07:26:11;;;;;;;;;19.00;16.75;;;;;15.42;46.67;99767.03;5160062;27;45374;-65
2022/04/22 07:28:40;;;;;;;;;20.00;18.50;;;;;15.48;46.31;99763.41;5159370;27;46502;-67
2022/04/22 07:31:08;;;;;;;;;16.75;15.75;;;;;15.55;46.09;99758.88;5160273;27;45319;-65
2022/04/22 07:33:34;;;;;;;;;20.75;17.00;;;;;15.58;46.16;99767.81;5160183;27;45570;-65
2022/04/22 07:36:00;;;;;;;;;16.50;14.75;;;;;15.61;46.08;99761.50;5159952;27;45356;-65
2022/04/22 07:38:25;;;;;;;;;15.25;13.25;;;;;15.63;45.82;99755.19;5159773;27;45359;-66
2022/04/22 07:40:51;;;;;;;;;22.00;18.25;;;;;15.68;46.11;99760.53;5159518;27;45487;-63
2022/04/22 07:48:52;;;;;;;;;18.00;14.75;;;;;15.81;45.64;99751.44;5159517;27;46064;-65
2022/04/22 07:51:17;;;;;;;;;14.25;14.00;;;;;15.90;45.50;99747.75;5159566;27;45524;-67
2022/04/22 07:53:46;;;;;;;;;14.75;14.00;;;;;15.96;45.45;99747.69;5159408;27;45586;-67
2022/04/22 07:56:11;;;;;;;;;15.50;15.50;;;;;16.03;45.22;99745.78;5140597;27;45561;-67
2022/04/22 07:58:37;;;;;;;;;21.00;17.00;;;;;16.22;44.78;99746.47;5159253;27;46500;-66
2022/04/22 08:01:02;;;;;;;;;20.75;17.25;;;;;16.33;44.17;99714.88;5140895;27;45812;-67
2022/04/22 08:03:28;;;;;;;;;23.50;20.75;;;;;16.29;43.57;99651.13;5159875;27;45367;-68
2022/04/22 08:05:53;;;;;;;;;19.50;19.50;;;;;16.99;43.04;99742.69;5160026;27;45309;-67
2022/04/22 08:08:18;;;;;;;;;17.00;16.00;;;;;17.09;42.64;99754.22;5159713;27;46306;-67
2022/04/22 08:10:45;;;;;;;;;19.50;15.00;;;;;17.10;43.11;99747.91;5160122;27;45440;-68
2022/04/22 08:13:10;;;;;;;;;18.25;16.75;;;;;17.07;42.47;99753.34;5159920;27;45443;-63
2022/04/22 08:15:36;;;;;;;;;20.00;19.25;;;;;17.08;42.72;99750.63;5140758;27;45370;-63
2022/04/22 08:18:02;;;;;;;;;16.25;15.50;;;;;16.98;42.72;99746.31;5158773;27;46107;-64
2022/04/22 08:20:31;;;;;;;;;18.00;13.25;;;;;16.82;42.19;99701.56;5159039;27;45419;-65
2022/04/22 08:23:00;;;;;;;;;20.25;15.00;;;;;17.06;42.14;99719.19;5159389;27;45485;-67
2022/04/22 08:25:25;;;;;;;;;16.75;16.50;;;;;17.25;42.31;99734.16;5158811;27;45462;-66
2022/04/22 08:27:51;;;;;;;;;20.25;16.00;;;;;17.27;41.74;99735.03;5158343;27;45259;-66
2022/04/22 08:30:17;;;;;;;;;19.75;14.25;;;;;17.43;41.70;99737.47;5158788;27;45310;-67
2022/04/22 08:32:43;;;;;;;;;19.50;13.50;;;;;17.44;40.90;99731.13;5158922;27;45382;-65
2022/04/22 08:35:09;;;;;;;;;19.25;14.75;;;;;17.43;41.29;99729.34;5159342;27;45417;-66
2022/04/22 08:37:34;;;;;;;;;15.00;14.25;;;;;17.30;41.02;99705.25;5158334;27;45668;-65
2022/04/22 08:39:59;;;;;;;;;17.25;17.00;;;;;17.49;41.15;99731.94;5139925;27;45342;-65
2022/04/22 08:42:25;;;;;;;;;12.50;12.00;;;;;17.55;40.48;99721.00;5159003;27;45335;-67
2022/04/22 08:44:52;;;;;;;;;17.25;13.25;;;;;17.63;41.21;99727.16;5158929;27;45547;-65
2022/04/22 08:50:02;;;;;;;;;14.00;9.75;;;;;17.83;40.38;99721.38;5158613;27;45320;-67
2022/04/22 08:52:34;;;;;;;;;14.50;13.00;;;;;17.92;39.87;99712.25;5158588;27;45448;-68
2022/04/22 08:55:01;;;;;;;;;18.00;16.00;;;;;17.99;39.52;99705.78;5158927;27;45357;-65
2022/04/22 08:57:30;;;;;;;;;22.00;17.00;;;;;18.17;39.60;99709.91;5159638;27;46352;-66
2022/04/22 09:00:09;;;;;;;;;16.50;11.50;;;;;18.30;39.13;99709.66;5159752;27;45331;-66
2022/04/22 09:02:35;;;;;;;;;17.00;17.00;;;;;18.28;38.86;99693.47;5159623;27;45676;-65
2022/04/22 09:05:01;;;;;;;;;17.50;13.50;;;;;18.48;38.60;99711.03;5158705;27;45401;-66
2022/04/22 09:07:27;;;;;;;;;17.75;15.25;;;;;18.50;38.63;99707.38;5158665;27;46348;-65
2022/04/22 09:09:53;;;;;;;;;22.50;18.25;;;;;18.62;38.24;99713.44;5158536;27;45460;-66
2022/04/22 09:12:21;;;;;;;;;16.00;16.00;;;;;18.66;38.19;99713.34;5158407;27;45316;-65
2022/04/22 09:14:49;;;;;;;;;13.25;13.00;;;;;18.68;37.91;99703.34;5158546;27;45437;-68
2022/04/22 09:17:21;;;;;;;;;16.25;16.25;;;;;18.62;37.61;99689.09;5157865;27;45550;-65
2022/04/22 09:19:46;;;;;;;;;9.00;9.00;;;;;18.76;37.13;99704.06;5158155;27;45645;-65
2022/04/22 09:22:17;;;;;;;;;17.25;12.75;;;;;18.81;37.63;99700.34;5157966;27;45431;-65
2022/04/22 09:24:48;;;;;;;;;13.50;11.50;;;;;18.86;37.40;99703.84;5158323;27;45682;-64
2022/04/22 09:27:13;;;;;;;;;14.25;13.50;;;;;18.93;37.24;99700.09;5158057;27;45714;-65
2022/04/22 09:29:52;;;;;;;;;10.50;9.25;;;;;19.04;36.29;99694.38;5156401;27;45537;-65
2022/04/22 09:32:23;;;;;;;;;11.00;9.50;;;;;19.15;36.02;99695.00;5157823;27;45398;-66
2022/04/22 09:34:48;;;;;;;;;8.75;8.75;;;;;18.87;36.02;99635.28;5158093;27;45354;-65
2022/04/22 09:42:55;;;;;;;;;11.50;11.50;;;;;19.37;35.46;99689.94;5157584;27;45406;-66
2022/04/22 09:45:22;;;;;;;;;14.50;13.00;;;;;19.45;35.17;99687.00;5157639;27;45391;-66
2022/04/22 09:47:58;;;;;;;;;9.50;9.50;;;;;19.44;35.05;99680.72;5157899;27;46240;-66
2022/04/22 09:50:42;;;;;;;;;13.00;10.67;;;;;19.56;34.83;99682.19;5157498;27;45380;-66
2022/04/22 09:53:09;;;;;;;;;10.50;9.00;;;;;19.65;34.73;99690.06;5157514;27;45372;-64
2022/04/22 09:55:37;;;;;;;;;10.00;9.67;;;;;19.73;34.61;99689.84;5138632;27;45321;-66
2022/04/22 09:58:02;;;;;;;;;12.00;10.33;;;;;19.83;34.51;99676.94;5157003;27;46187;-65
2022/04/22 10:00:30;;;;;;;;;6.67;6.67;;;;;19.83;34.34;99675.16;5157715;27;45681;-66
2022/04/22 10:02:56;;;;;;;;;9.33;9.33;;;;;19.88;33.99;99683.13;5157826;27;45559;-66
2022/04/22 10:05:27;;;;;;;;;13.00;10.00;;;;;19.91;33.64;99680.31;5158016;27;45312;-65
2022/04/22 10:07:57;;;;;;;;;10.00;7.33;;;;;19.95;33.62;99679.31;5157221;27;45399;-68
2022/04/22 10:10:27;;;;;;;;;6.33;6.33;;;;;20.01;33.36;99657.44;5157001;27;45324;-66
2022/04/22 10:12:56;;;;;;;;;13.75;9.00;;;;;19.84;32.93;99630.81;5157613;27;45513;-66
2022/04/22 10:15:26;;;;;;;;;6.00;6.00;;;;;19.91;33.32;99663.19;5157703;27;45547;-64
2022/04/22 10:17:52;;;;;;;;;8.00;8.00;;;;;19.92;33.33;99659.53;5157189;27;46389;-64
2022/04/22 10:20:19;;;;;;;;;9.00;9.00;;;;;19.84;33.31;99628.13;5156981;27;45462;-66
2022/04/22 10:22:48;;;;;;;;;8.67;6.67;;;;;19.66;33.31;99588.84;5156981;27;45326;-67
2022/04/22 10:25:14;;;;;;;;;8.67;8.67;;;;;20.06;32.90;99652.78;5157003;27;45517;-68
2022/04/22 10:27:42;;;;;;;;;7.67;7.00;;;;;20.10;32.43;99650.84;5156680;27;47122;-66
2022/04/22 10:30:10;;;;;;;;;9.67;9.67;;;;;20.02;32.07;99631.22;5156478;27;45294;-67
2022/04/22 10:32:39;;;;;;;;;6.33;5.00;;;;;20.01;31.33;99637.56;5156799;27;45392;-68
2022/04/22 10:35:05;;;;;;;;;7.33;6.67;;;;;19.97;32.13;99635.91;5156972;27;45534;-66
2022/04/22 10:37:33;;;;;;;;;6.00;6.00;;;;;20.09;31.93;99645.47;5156528;27;45456;-66
2022/04/22 10:39:59;;;;;;;;;9.33;6.33;;;;;20.17;31.38;99641.59;5156279;27;45476;-66
2022/04/22 10:42:38;;;;;;;;;6.67;4.67;;;;;20.23;30.42;99646.81;5156018;27;45316;-67
2022/04/22 10:47:50;;;;;;;;;18.50;17.00;;;;;20.30;30.75;99649.34;5155842;27;45815;-66
2022/04/22 10:50:33;;;;;;;;;8.67;6.00;;;;;20.34;30.81;99657.34;5156056;27;45357;-66
2022/04/22 10:53:07;;;;;;;;;8.33;7.00;;;;;20.40;30.40;99649.00;5156682;27;45524;-66
2022/04/22 10:55:32;;;;;;;;;5.00;5.00;;;;;20.32;29.99;99642.06;5157296;27;45668;-66
2022/04/22 10:58:12;;;;;;;;;11.00;6.33;;;;;20.34;30.14;99641.09;5156399;27;45986;-66
2022/04/22 11:00:43;;;;;;;;;5.33;5.33;;;;;20.39;30.57;99638.19;5155862;27;45463;-67
2022/04/22 11:03:19;;;;;;;;;9.67;7.67;;;;;20.43;30.16;99632.63;5156082;27;45480;-66
2022/04/22 11:05:48;;;;;;;;;10.25;8.25;;;;;20.43;30.40;99638.06;5155785;27;45441;-66
2022/04/22 11:08:18;;;;;;;;;6.67;5.67;;;;;20.47;30.64;99632.53;5155491;27;46338;-67
2022/04/22 11:10:44;;;;;;;;;5.33;5.33;;;;;20.43;30.34;99638.06;5155778;27;45419;-67
2022/04/22 11:13:27;;;;;;;;;10.75;9.25;;;;;20.44;30.45;99626.28;5155873;27;45597;-65
2022/04/22 11:15:56;;;;;;;;;8.33;8.33;;;;;20.40;30.92;99624.59;5155828;27;45458;-67
2022/04/22 11:18:22;;;;;;;;;10.25;9.25;;;;;20.32;30.75;99612.22;5155265;27;45664;-66
2022/04/22 11:20:52;;;;;;;;;7.00;7.00;;;;;20.34;30.99;99613.03;5155217;27;45568;-66
2022/04/22 11:23:18;;;;;;;;;26.25;25.75;;;;;20.28;31.02;99611.44;5155722;27;45315;-66
2022/04/22 11:25:46;;;;;;;;;8.00;8.00;;;;;20.21;31.07;99617.97;5154027;27;45533;-66
2022/04/22 11:28:12;;;;;;;;;5.33;5.33;;;;;20.27;31.03;99616.91;5155237;27;46276;-66
2022/04/22 11:30:38;;;;;;;;;8.67;6.00;;;;;20.14;30.49;99600.13;5154873;27;45454;-67
2022/04/22 11:33:21;;;;;;;;;5.33;4.00;;;;;20.16;31.18;99610.00;5154810;27;45423;-66
2022/04/22 11:35:49;;;;;;;;;9.50;7.00;;;;;20.07;31.17;99596.72;5155446;27;45456;-66
2022/04/22 11:38:15;;;;;;;;;10.00;10.00;;;;;20.23;31.47;99618.81;5155566;27;46252;-66
2022/04/22 11:40:43;;;;;;;;;24.50;22.50;;;;;20.25;31.50;99625.97;5155326;27;45435;-66
2022/04/22 11:43:12;;;;;;;;;8.33;7.00;;;;;20.22;31.47;99606.19;5155835;27;45666;-66
2022/04/22 11:45:41;;;;;;;;;4.33;3.00;;;;;20.26;31.33;99610.59;5155437;27;45585;-66
2022/04/22 11:48:26;;;;;;;;;8.67;8.33;;;;;20.15;31.28;99604.63;5154646;27;46365;-66
2022/04/22 11:50:55;;;;;;;;;11.67;10.00;;;;;20.13;31.61;99595.63;5154565;27;45560;-66
2022/04/22 11:53:32;;;;;;;;;6.33;6.00;;;;;20.20;31.40;99613.50;5158684;27;45599;-66
2022/04/22 11:56:00;;;;;;;;;6.33;6.33;;;;;20.22;31.47;99612.50;5159767;27;45392;-64
2022/04/22 11:58:27;;;;;;;;;13.67;9.00;;;;;20.20;31.75;99603.53;5158820;27;45442;-66
2022/04/22 12:06:22;;;;;;;;;10.75;6.75;;;;;20.29;31.72;99596.03;5158848;27;45358;-64
2022/04/22 12:08:54;;;;;;;;;10.00;8.33;;;;;20.23;31.92;99575.44;5158284;27;45933;-67
2022/04/22 12:11:22;;;;;;;;;6.00;5.67;;;;;20.27;31.75;99590.66;5159251;27;45314;-67
2022/04/22 12:13:48;;;;;;;;;5.00;5.00;;;;;20.38;31.55;99582.19;5159192;27;45549;-66
2022/04/22 12:16:21;;;;;;;;;13.25;11.00;;;;;20.41;32.00;99591.09;5158885;27;45433;-66
2022/04/22 12:18:48;;;;;;;;;9.00;6.00;;;;;20.39;31.85;99589.38;5158231;27;45486;-66
2022/04/22 12:21:15;;;;;;;;;8.33;7.00;;;;;20.42;31.66;99590.16;5157770;27;45286;-67